Busy Bee — BUSYB — position and weather

sailwx.info

Track history (hours):
 
Tides and Currents Weather Stations Pressure Air Temp Water Temp Dewpoint Dewpoint Depression Visibility Wind Speed Wind Dir Waves Ship Positions

Busy Bee

Last reported at 2017-Jun-06 06:30 UTC. Time now 2017-Jun-23 10:38 UTC.
Position N 34°42' E 135°20'.
Warning: this ship's position is 17 days out of date.

Length 15 m.

Type: Sailing vessel. MMSI: 431002814.

Date/timePositionNaut miles runAvg speedWind from/ knotsBaromVisibWave heightAir tempDewpointWater temp
2017-Jun-06 06:30N 34°42' E 135°20'5 7.0
2017-Jun-06 05:45N 34°38' E 135°16'2 7.5
2017-Jun-06 05:29N 34°37' E 135°14'4 7.7
2017-Jun-06 04:56N 34°34' E 135°10'1 1.0
2017-Jun-06 03:45N 34°34' E 135°09'1 2.4
2017-Jun-06 03:14N 34°35' E 135°10'2 6.0
2017-Jun-06 02:57N 34°36' E 135°11'4 6.4
2017-Jun-06 02:22N 34°38' E 135°15'3 6.6
2017-Jun-06 01:59N 34°40' E 135°18'  
2017-May-31 07:00N 34°42' E 135°20'4 7.4
2017-May-31 06:30N 34°39' E 135°17'4 7.4
2017-May-31 06:00N 34°37' E 135°14'3 1.1
2017-May-31 03:03N 34°35' E 135°10'1 7.0
2017-May-31 02:51N 34°36' E 135°12'2 6.9
2017-May-31 02:30N 34°37' E 135°14'3 6.7
2017-May-31 02:00N 34°39' E 135°17'  
Track history (hours):
 
Tides and Currents Weather Stations Pressure Air Temp Water Temp Dewpoint Dewpoint Depression Visibility Wind Speed Wind Dir Waves Ship Positions

Busy Bee

Last reported at 2017-Jun-06 06:30 UTC. Time now 2017-Jun-23 10:38 UTC.
Position N 34°42' E 135°20'.
Warning: this ship's position is 17 days out of date.

Length 15 m.

Type: Sailing vessel. MMSI: 431002814.

Date/timePositionNaut miles runAvg speedWind from/ knotsBaromVisibWave heightAir tempDewpointWater temp
2017-Jun-06 06:30N 34°42' E 135°20'5 7.0
2017-Jun-06 05:45N 34°38' E 135°16'2 7.5
2017-Jun-06 05:29N 34°37' E 135°14'4 7.7
2017-Jun-06 04:56N 34°34' E 135°10'1 1.0
2017-Jun-06 03:45N 34°34' E 135°09'1 2.4
2017-Jun-06 03:14N 34°35' E 135°10'2 6.0
2017-Jun-06 02:57N 34°36' E 135°11'4 6.4
2017-Jun-06 02:22N 34°38' E 135°15'3 6.6
2017-Jun-06 01:59N 34°40' E 135°18'  
2017-May-31 07:00N 34°42' E 135°20'4 7.4
2017-May-31 06:30N 34°39' E 135°17'4 7.4
2017-May-31 06:00N 34°37' E 135°14'3 1.1
2017-May-31 03:03N 34°35' E 135°10'1 7.0
2017-May-31 02:51N 34°36' E 135°12'2 6.9
2017-May-31 02:30N 34°37' E 135°14'3 6.7
2017-May-31 02:00N 34°39' E 135°17'  

Dump ship's entire track history